createdAt,value
2022-10-22T00:00:49.153Z,64.69
2022-10-22T00:03:17.227Z,64.95
2022-10-22T00:05:44.977Z,64.78
2022-10-22T00:08:12.954Z,65.27
2022-10-22T00:10:41.987Z,65.07
2022-10-22T00:13:11.173Z,64.83
2022-10-22T00:15:39.020Z,65.11
2022-10-22T00:18:06.907Z,65.21
2022-10-22T00:20:34.453Z,65.82
2022-10-22T00:23:02.153Z,64.87
2022-10-22T00:25:31.083Z,65.40
2022-10-22T00:27:58.570Z,65.09
2022-10-22T00:30:26.089Z,65.46
2022-10-22T00:32:55.320Z,65.63
2022-10-22T00:35:22.974Z,66.13
2022-10-22T00:37:50.618Z,65.97
2022-10-22T00:40:18.706Z,66.09
2022-10-22T00:42:46.271Z,65.25
2022-10-22T00:45:27.447Z,65.33
2022-10-22T00:47:59.706Z,65.85
2022-10-22T00:50:34.540Z,66.17
2022-10-22T00:53:04.864Z,65.82
2022-10-22T00:55:36.100Z,65.66
2022-10-22T00:58:13.790Z,65.60
2022-10-22T01:00:42.098Z,65.75
2022-10-22T01:03:10.119Z,65.63
2022-10-22T01:05:43.802Z,65.57
2022-10-22T01:08:20.395Z,65.78
2022-10-22T01:11:35.949Z,66.02
2022-10-22T01:14:28.519Z,66.19
2022-10-22T01:17:05.023Z,65.83
2022-10-22T01:19:54.638Z,65.70
2022-10-22T01:22:29.001Z,65.94
2022-10-22T01:24:59.975Z,65.69
2022-10-22T01:27:35.709Z,66.05
2022-10-22T01:30:08.716Z,66.39
2022-10-22T01:32:40.916Z,65.96
2022-10-22T01:35:11.203Z,65.72
2022-10-22T01:37:48.402Z,65.99
2022-10-22T01:40:17.293Z,65.74
2022-10-22T01:42:58.844Z,66.23
2022-10-22T01:45:28.983Z,64.42
2022-10-22T01:48:05.638Z,65.30
2022-10-22T01:50:43.221Z,65.14
2022-10-22T01:53:49.267Z,65.38
2022-10-22T01:56:22.927Z,65.96
2022-10-22T01:59:03.113Z,66.63
2022-10-22T02:01:54.677Z,65.91
2022-10-22T02:04:41.182Z,67.25
2022-10-22T02:07:12.623Z,67.21
2022-10-22T02:09:41.301Z,67.46
2022-10-22T02:12:09.491Z,66.30
2022-10-22T02:14:39.362Z,66.79
2022-10-22T02:17:10.305Z,67.09
2022-10-22T02:19:42.169Z,66.88
2022-10-22T02:22:10.162Z,66.95
2022-10-22T02:24:37.737Z,66.94
2022-10-22T02:27:25.943Z,66.85
2022-10-22T02:30:10.775Z,67.34
2022-10-22T02:32:55.668Z,67.57
2022-10-22T02:35:26.446Z,67.74
2022-10-22T02:37:55.529Z,67.31
2022-10-22T02:40:24.154Z,67.08
2022-10-22T02:42:51.768Z,67.03
2022-10-22T02:45:20.259Z,66.84
2022-10-22T02:47:48.538Z,66.94
2022-10-22T02:50:16.511Z,68.04
2022-10-22T02:52:44.191Z,69.35
2022-10-22T02:55:12.038Z,68.73
2022-10-22T02:57:39.905Z,67.34
2022-10-22T03:00:09.038Z,68.22
2022-10-22T03:02:36.898Z,68.09
2022-10-22T03:05:05.309Z,68.32
2022-10-22T03:07:33.532Z,68.45
2022-10-22T03:10:01.525Z,67.98
2022-10-22T03:12:30.640Z,68.64
2022-10-22T03:14:58.274Z,68.32
2022-10-22T03:17:26.501Z,68.44
2022-10-22T03:19:54.125Z,68.30
2022-10-22T03:22:24.119Z,68.54
2022-10-22T03:24:54.996Z,69.58
2022-10-22T03:27:23.299Z,69.24
2022-10-22T03:29:52.577Z,70.14
2022-10-22T03:32:20.397Z,69.72
2022-10-22T03:34:48.096Z,69.80
2022-10-22T03:37:15.879Z,70.25
2022-10-22T03:39:44.160Z,70.04
2022-10-22T03:42:11.866Z,69.63
2022-10-22T03:44:40.626Z,69.64
2022-10-22T03:47:08.509Z,70.28
2022-10-22T03:49:36.122Z,70.42
2022-10-22T03:52:07.765Z,69.72
2022-10-22T03:54:36.353Z,70.25
2022-10-22T03:57:05.404Z,70.75
2022-10-22T03:59:40.836Z,70.86
2022-10-22T04:02:09.180Z,70.08
2022-10-22T04:04:37.400Z,69.78
2022-10-22T04:07:06.306Z,70.40
2022-10-22T04:09:34.938Z,70.28
2022-10-22T04:12:02.974Z,69.82
2022-10-22T04:14:30.691Z,69.96
2022-10-22T04:16:58.315Z,70.28
2022-10-22T04:19:26.349Z,69.90
2022-10-22T04:21:53.948Z,71.70
2022-10-22T04:24:21.607Z,71.62
2022-10-22T04:26:49.535Z,70.97
2022-10-22T04:29:17.654Z,71.53
2022-10-22T04:31:46.983Z,71.45
2022-10-22T04:34:16.119Z,72.28
2022-10-22T04:36:44.442Z,72.97
2022-10-22T04:39:12.621Z,73.56
2022-10-22T04:41:40.587Z,72.56
2022-10-22T04:44:12.235Z,72.53
2022-10-22T04:46:44.012Z,72.41
2022-10-22T04:49:11.699Z,73.85
2022-10-22T04:51:39.355Z,74.53
2022-10-22T04:54:07.301Z,75.67
2022-10-22T04:56:34.876Z,75.48
2022-10-22T04:59:05.088Z,76.13
2022-10-22T05:01:38.453Z,75.04
2022-10-22T05:04:12.683Z,75.21
2022-10-22T05:06:40.820Z,74.94
2022-10-22T05:09:12.678Z,77.03
2022-10-22T05:11:42.141Z,76.21
2022-10-22T05:14:10.430Z,76.86
2022-10-22T05:16:38.745Z,77.12
2022-10-22T05:19:07.490Z,75.74
2022-10-22T05:21:35.526Z,76.44
2022-10-22T05:24:03.241Z,76.35
2022-10-22T05:26:31.633Z,75.82
2022-10-22T05:28:59.306Z,75.77
2022-10-22T05:31:27.056Z,75.30
2022-10-22T05:33:55.703Z,75.55
2022-10-22T05:36:23.520Z,75.47
2022-10-22T05:38:51.247Z,75.86
2022-10-22T05:41:22.218Z,75.98
2022-10-22T05:43:50.158Z,75.82
2022-10-22T05:46:22.567Z,76.18
2022-10-22T05:49:02.007Z,75.76
2022-10-22T05:51:32.882Z,75.90
2022-10-22T05:54:04.323Z,75.65
2022-10-22T05:56:32.684Z,76.09
2022-10-22T06:01:34.424Z,74.15
2022-10-22T06:04:08.400Z,74.74
2022-10-22T06:06:47.899Z,73.90
2022-10-22T06:09:21.379Z,73.75
2022-10-22T06:11:49.566Z,73.43
2022-10-22T06:14:18.630Z,73.50
2022-10-22T06:16:46.547Z,73.07
2022-10-22T06:19:16.593Z,72.73
2022-10-22T06:21:47.922Z,72.25
2022-10-22T06:24:16.040Z,72.35
2022-10-22T06:26:43.980Z,71.96
2022-10-22T06:29:12.165Z,71.77
2022-10-22T06:31:39.840Z,71.66
2022-10-22T06:34:11.554Z,71.57
2022-10-22T06:36:39.315Z,72.01
2022-10-22T06:39:07.225Z,71.24
2022-10-22T06:41:34.820Z,71.46
2022-10-22T06:44:02.481Z,70.63
2022-10-22T06:46:33.192Z,70.66
2022-10-22T06:49:02.088Z,70.18
2022-10-22T06:51:30.175Z,69.92
2022-10-22T06:53:58.353Z,69.66
2022-10-22T06:56:27.227Z,69.76
2022-10-22T06:58:56.649Z,69.06
2022-10-22T07:01:30.192Z,68.81
2022-10-22T07:03:58.503Z,67.58
2022-10-22T07:06:28.665Z,67.11
2022-10-22T07:08:58.381Z,66.87
2022-10-22T07:11:45.698Z,66.15
2022-10-22T07:14:14.197Z,66.46
2022-10-22T07:16:42.118Z,65.87
2022-10-22T07:19:09.778Z,65.07
2022-10-22T07:21:37.527Z,65.52
2022-10-22T07:24:05.890Z,65.23
2022-10-22T07:26:34.214Z,65.00
2022-10-22T07:29:06.170Z,64.89
2022-10-22T07:31:51.424Z,64.50
2022-10-22T07:36:48.029Z,65.17
2022-10-22T07:39:18.107Z,65.18
2022-10-22T07:41:45.851Z,64.28
2022-10-22T07:44:16.257Z,64.93
2022-10-22T07:46:48.059Z,64.60
2022-10-22T07:49:17.013Z,64.61
2022-10-22T07:51:44.638Z,64.91
2022-10-22T07:54:12.248Z,64.54
2022-10-22T07:56:40.145Z,63.84
2022-10-22T07:59:07.778Z,62.47
2022-10-22T08:01:35.347Z,62.80
2022-10-22T08:04:03.319Z,62.75
2022-10-22T08:06:31.531Z,61.81
2022-10-22T08:09:00.510Z,61.02
2022-10-22T08:11:30.865Z,60.31
2022-10-22T08:13:58.476Z,60.87
2022-10-22T08:16:26.118Z,59.97
2022-10-22T08:18:54.017Z,58.98
2022-10-22T08:21:21.639Z,59.03
2022-10-22T08:23:49.209Z,59.05
2022-10-22T08:26:19.590Z,58.90
2022-10-22T08:28:47.188Z,57.94
2022-10-22T08:31:17.761Z,57.25
2022-10-22T08:33:46.126Z,58.24
2022-10-22T08:36:13.844Z,57.66
2022-10-22T08:38:41.430Z,56.58
2022-10-22T08:41:20.871Z,57.02
2022-10-22T08:44:00.443Z,55.63
2022-10-22T08:46:52.732Z,55.52
2022-10-22T08:49:26.626Z,55.49
2022-10-22T08:51:56.565Z,54.99
2022-10-22T08:54:47.255Z,55.29
2022-10-22T08:57:20.325Z,54.71
2022-10-22T08:59:56.919Z,54.68
2022-10-22T09:02:44.121Z,55.31
2022-10-22T09:05:20.958Z,56.14
2022-10-22T09:07:50.307Z,56.04
2022-10-22T09:10:24.487Z,56.17
2022-10-22T09:12:52.492Z,57.53
2022-10-22T09:15:20.958Z,56.69
2022-10-22T09:18:00.410Z,57.56
2022-10-22T09:20:42.922Z,57.95
2022-10-22T09:23:13.498Z,57.94
2022-10-22T09:25:42.306Z,59.17
2022-10-22T09:28:10.224Z,58.34
2022-10-22T09:30:38.870Z,58.58
2022-10-22T09:33:15.726Z,59.82
2022-10-22T09:35:46.124Z,58.99
2022-10-22T09:38:16.229Z,58.68
2022-10-22T09:40:46.345Z,58.37
2022-10-22T09:43:14.397Z,58.89
2022-10-22T09:45:42.990Z,58.30
2022-10-22T09:48:23.784Z,58.55
2022-10-22T09:50:56.358Z,58.83
2022-10-22T09:53:29.995Z,58.49
2022-10-22T09:56:00.296Z,59.46
2022-10-22T09:58:28.476Z,59.50
2022-10-22T10:00:58.694Z,59.57
2022-10-22T10:03:28.636Z,59.56
2022-10-22T10:06:04.772Z,59.54
2022-10-22T10:08:34.328Z,59.45
2022-10-22T10:11:05.639Z,59.37
2022-10-22T10:13:57.644Z,59.75
2022-10-22T10:17:05.189Z,60.65
2022-10-22T10:19:49.840Z,60.84
2022-10-22T10:22:39.677Z,60.38
2022-10-22T10:25:25.841Z,59.96
2022-10-22T10:27:58.516Z,60.16
2022-10-22T10:30:26.261Z,60.43
2022-10-22T10:33:12.997Z,60.92
2022-10-22T10:36:02.050Z,60.24
2022-10-22T10:38:46.423Z,59.75
2022-10-22T10:41:14.041Z,60.48
2022-10-22T10:43:50.795Z,60.83
2022-10-22T10:46:47.742Z,60.96
2022-10-22T10:49:26.950Z,61.41
2022-10-22T10:52:09.845Z,61.65
2022-10-22T10:54:55.048Z,60.85
2022-10-22T10:57:31.701Z,60.02
2022-10-22T11:00:10.704Z,60.75
2022-10-22T11:03:03.124Z,60.63
2022-10-22T11:05:42.208Z,61.15
2022-10-22T11:08:19.452Z,60.84
2022-10-22T11:10:53.830Z,62.07
2022-10-22T11:13:32.045Z,62.08
2022-10-22T11:16:20.164Z,62.54
2022-10-22T11:18:51.790Z,62.73
2022-10-22T11:21:47.683Z,62.94
2022-10-22T11:24:41.701Z,63.01
2022-10-22T11:28:02.663Z,63.18
2022-10-22T11:30:35.891Z,63.25
2022-10-22T11:33:07.591Z,63.25
2022-10-22T11:35:37.831Z,63.13
2022-10-22T11:38:06.931Z,63.10
2022-10-22T11:40:48.984Z,62.83
2022-10-22T11:43:28.934Z,63.09
2022-10-22T11:46:22.376Z,62.57
2022-10-22T11:49:05.630Z,63.23
2022-10-22T11:51:38.200Z,62.41
2022-10-22T11:54:35.612Z,62.09
2022-10-22T11:57:15.393Z,61.21
2022-10-22T12:00:12.219Z,60.33
2022-10-22T12:02:39.625Z,60.91
2022-10-22T12:05:33.274Z,59.78
2022-10-22T12:08:16.387Z,61.21
2022-10-22T12:11:10.361Z,61.14
2022-10-22T12:13:56.541Z,61.78
2022-10-22T12:16:37.719Z,62.49
2022-10-22T12:19:24.090Z,61.97
2022-10-22T12:21:58.224Z,61.74
2022-10-22T12:24:30.756Z,61.61
2022-10-22T12:26:58.698Z,61.38
2022-10-22T12:29:26.362Z,60.81
2022-10-22T12:31:54.066Z,61.10
2022-10-22T12:34:24.181Z,60.60
2022-10-22T12:36:54.539Z,61.35
2022-10-22T12:39:26.003Z,61.41
2022-10-22T12:41:54.530Z,61.09
2022-10-22T12:44:22.640Z,61.07
2022-10-22T12:46:54.434Z,61.93
2022-10-22T12:49:36.885Z,62.39
2022-10-22T12:52:09.848Z,63.87
2022-10-22T12:54:40.799Z,63.59
2022-10-22T12:57:13.979Z,63.80
2022-10-22T12:59:48.751Z,62.37
2022-10-22T13:02:26.411Z,62.49
2022-10-22T13:05:20.617Z,62.32
2022-10-22T13:07:51.452Z,62.76
2022-10-22T13:10:38.213Z,63.22
2022-10-22T13:13:06.051Z,62.54
2022-10-22T13:15:38.539Z,62.83
2022-10-22T13:18:16.740Z,62.91
2022-10-22T13:20:58.269Z,62.96
2022-10-22T13:23:26.331Z,63.94
2022-10-22T13:25:57.714Z,64.31
2022-10-22T13:28:25.862Z,64.82
2022-10-22T13:30:54.480Z,64.29
2022-10-22T13:33:23.954Z,64.42
2022-10-22T13:35:52.509Z,63.94
2022-10-22T13:38:22.497Z,64.13
2022-10-22T13:40:51.123Z,64.68
2022-10-22T13:43:19.078Z,64.73
2022-10-22T13:45:48.019Z,64.90
2022-10-22T13:48:18.506Z,64.62
2022-10-22T13:50:46.411Z,64.06
2022-10-22T13:53:25.803Z,64.27
2022-10-22T13:55:53.882Z,64.64
2022-10-22T13:58:23.231Z,64.53
2022-10-22T14:01:00.748Z,64.81
2022-10-22T14:03:32.069Z,65.19
2022-10-22T14:06:00.347Z,64.80
2022-10-22T14:08:28.590Z,65.47
2022-10-22T14:10:56.211Z,65.35
2022-10-22T14:13:23.837Z,65.30
2022-10-22T14:15:52.290Z,65.55
2022-10-22T14:18:23.308Z,64.90
2022-10-22T14:20:52.628Z,64.75
2022-10-22T14:23:21.748Z,64.38
2022-10-22T14:25:49.406Z,64.83
2022-10-22T14:28:17.513Z,64.45
2022-10-22T14:30:46.191Z,64.23
2022-10-22T14:33:27.225Z,65.29
2022-10-22T14:36:00.389Z,65.06
2022-10-22T14:38:28.770Z,65.61
2022-10-22T14:40:57.061Z,65.99
2022-10-22T14:43:29.705Z,65.54
2022-10-22T14:45:57.994Z,65.94
2022-10-22T14:48:26.343Z,65.80
2022-10-22T14:50:54.516Z,65.69
2022-10-22T14:53:22.165Z,66.01
2022-10-22T14:55:50.148Z,65.53
2022-10-22T14:58:18.027Z,65.33
2022-10-22T15:00:45.756Z,65.82
2022-10-22T15:03:13.730Z,65.54
2022-10-22T15:05:42.485Z,65.78
2022-10-22T15:08:11.096Z,66.06
2022-10-22T15:10:39.333Z,66.20
2022-10-22T15:13:07.047Z,65.41
2022-10-22T15:15:39.528Z,65.57
2022-10-22T15:18:08.216Z,65.67
2022-10-22T15:20:58.283Z,65.91
2022-10-22T15:23:26.669Z,66.50
2022-10-22T15:25:54.423Z,66.58
2022-10-22T15:28:22.182Z,66.64
2022-10-22T15:30:59.205Z,66.93
2022-10-22T15:33:27.822Z,66.76
2022-10-22T15:35:56.630Z,66.69
2022-10-22T15:41:06.687Z,67.58
2022-10-22T15:43:35.980Z,67.07
2022-10-22T15:46:15.591Z,67.30
2022-10-22T15:48:43.563Z,67.94
2022-10-22T15:51:17.100Z,67.58
2022-10-22T15:53:51.053Z,67.66
2022-10-22T15:56:21.504Z,67.77
2022-10-22T15:58:54.900Z,67.29
2022-10-22T16:01:23.172Z,67.72
2022-10-22T16:03:52.049Z,67.21
2022-10-22T16:06:19.933Z,67.79
2022-10-22T16:08:47.844Z,68.20
2022-10-22T16:11:15.943Z,68.21
2022-10-22T16:13:43.730Z,69.13
2022-10-22T16:16:11.365Z,69.77
2022-10-22T16:18:39.563Z,70.05
2022-10-22T16:21:12.339Z,70.49
2022-10-22T16:23:41.517Z,71.60
2022-10-22T16:26:09.212Z,71.38
2022-10-22T16:28:36.779Z,72.46
2022-10-22T16:31:06.446Z,73.48
2022-10-22T16:33:41.344Z,75.70
2022-10-22T16:36:16.133Z,76.76
2022-10-22T16:38:44.633Z,77.54
2022-10-22T16:41:15.072Z,77.46
2022-10-22T16:43:44.627Z,77.61
2022-10-22T16:46:13.954Z,78.41
2022-10-22T16:48:48.980Z,79.63
2022-10-22T16:51:19.973Z,80.22
2022-10-22T16:53:47.788Z,81.55
2022-10-22T16:56:16.700Z,82.14
2022-10-22T16:58:47.086Z,81.65
2022-10-22T17:01:17.998Z,84.08
2022-10-22T17:03:49.694Z,83.71
2022-10-22T17:06:17.488Z,84.08
2022-10-22T17:08:45.839Z,85.51
2022-10-22T17:11:16.252Z,86.39
2022-10-22T17:13:48.126Z,88.09
2022-10-22T17:16:17.751Z,87.54
2022-10-22T17:18:47.924Z,87.32
2022-10-22T17:21:17.820Z,87.76
2022-10-22T17:23:46.236Z,88.92
2022-10-22T17:26:19.701Z,89.14
2022-10-22T17:28:49.928Z,89.29
2022-10-22T17:31:20.198Z,89.90
2022-10-22T17:33:49.818Z,89.16
2022-10-22T17:36:18.501Z,89.58
2022-10-22T17:38:49.687Z,89.51
2022-10-22T17:41:20.571Z,89.60
2022-10-22T17:43:48.705Z,91.02
2022-10-22T17:46:21.955Z,91.14
2022-10-22T17:48:54.907Z,91.71
2022-10-22T17:51:24.134Z,91.78
2022-10-22T17:53:52.587Z,92.09
2022-10-22T17:56:30.050Z,92.12
2022-10-22T17:58:58.181Z,91.75
2022-10-22T18:01:32.551Z,92.76
2022-10-22T18:04:02.679Z,94.21
2022-10-22T18:06:30.689Z,94.02
2022-10-22T18:08:58.549Z,93.38
2022-10-22T18:11:27.631Z,93.75
2022-10-22T18:13:56.782Z,94.50
2022-10-22T18:16:25.540Z,94.63
2022-10-22T18:18:55.384Z,95.16
2022-10-22T18:21:25.656Z,95.05
2022-10-22T18:23:54.233Z,94.66
2022-10-22T18:26:25.877Z,94.18
2022-10-22T18:28:56.775Z,93.91
2022-10-22T18:31:26.630Z,93.39
2022-10-22T18:36:28.166Z,94.66
2022-10-22T18:38:59.864Z,94.10
2022-10-22T18:41:29.956Z,92.76
2022-10-22T18:44:00.747Z,93.64
2022-10-22T18:46:31.101Z,94.69
2022-10-22T18:48:59.293Z,94.76
2022-10-22T18:51:29.004Z,95.24
2022-10-22T18:54:05.164Z,96.29
2022-10-22T18:56:45.609Z,96.18
2022-10-22T18:59:19.086Z,95.27
2022-10-22T19:01:46.959Z,94.43
2022-10-22T19:04:14.971Z,95.23
2022-10-22T19:06:45.256Z,96.13
2022-10-22T19:09:15.147Z,97.24
2022-10-22T19:11:44.749Z,97.07
2022-10-22T19:14:13.819Z,97.45
2022-10-22T19:16:41.957Z,98.18
2022-10-22T19:19:11.483Z,97.08
2022-10-22T19:21:39.389Z,98.32
2022-10-22T19:24:07.303Z,98.00
2022-10-22T19:26:35.342Z,97.52
2022-10-22T19:29:04.028Z,96.88
2022-10-22T19:31:32.184Z,97.45
2022-10-22T19:34:01.191Z,97.83
2022-10-22T19:36:30.179Z,97.19
2022-10-22T19:38:59.096Z,96.79
2022-10-22T19:41:28.536Z,97.69
2022-10-22T19:43:58.036Z,96.64
2022-10-22T19:46:27.871Z,96.18
2022-10-22T19:48:56.138Z,96.09
2022-10-22T19:51:28.723Z,96.28
2022-10-22T19:53:58.702Z,96.49
2022-10-22T19:56:27.325Z,96.24
2022-10-22T19:58:55.322Z,96.54
2022-10-22T20:01:26.859Z,96.02
2022-10-22T20:03:55.080Z,96.17
2022-10-22T20:06:22.940Z,96.90
2022-10-22T20:08:53.796Z,97.37
2022-10-22T20:11:26.412Z,97.81
2022-10-22T20:13:56.169Z,97.38
2022-10-22T20:16:26.876Z,97.75
2022-10-22T20:18:54.670Z,97.44
2022-10-22T20:21:22.422Z,97.37
2022-10-22T20:23:54.289Z,97.68
2022-10-22T20:26:22.208Z,96.89
2022-10-22T20:28:51.409Z,97.79
2022-10-22T20:31:21.587Z,98.17
2022-10-22T20:33:49.900Z,97.84
2022-10-22T20:36:20.675Z,97.91
2022-10-22T20:38:48.855Z,97.95
2022-10-22T20:41:23.337Z,97.79
2022-10-22T20:43:51.995Z,97.05
2022-10-22T20:46:29.150Z,98.54
2022-10-22T20:49:00.978Z,98.79
2022-10-22T20:51:28.864Z,97.54
2022-10-22T20:53:56.791Z,97.63
2022-10-22T20:56:24.853Z,97.09
2022-10-22T20:58:52.511Z,97.43
2022-10-22T21:01:20.891Z,97.03
2022-10-22T21:03:50.829Z,97.24
2022-10-22T21:06:19.509Z,97.44
2022-10-22T21:08:47.125Z,97.09
2022-10-22T21:11:15.255Z,96.37
2022-10-22T21:13:42.962Z,96.03
2022-10-22T21:16:12.519Z,95.91
2022-10-22T21:18:40.663Z,96.56
2022-10-22T21:21:09.107Z,96.89
2022-10-22T21:23:36.996Z,97.87
2022-10-22T21:26:05.497Z,97.61
2022-10-22T21:28:35.283Z,97.93
2022-10-22T21:31:08.390Z,98.71
2022-10-22T21:33:39.476Z,97.58
2022-10-22T21:36:08.351Z,98.27
2022-10-22T21:38:37.414Z,97.70
2022-10-22T21:41:06.977Z,96.83
2022-10-22T21:43:37.216Z,98.01
2022-10-22T21:46:18.463Z,99.24
2022-10-22T21:48:46.173Z,98.84
2022-10-22T21:51:18.763Z,98.73
2022-10-22T21:53:47.106Z,98.91
2022-10-22T21:56:20.176Z,98.30
2022-10-22T21:58:48.012Z,98.23
2022-10-22T22:01:16.151Z,98.29
2022-10-22T22:03:46.127Z,98.10
2022-10-22T22:06:13.703Z,98.76
2022-10-22T22:08:41.730Z,98.66
2022-10-22T22:11:12.296Z,98.29
2022-10-22T22:13:40.328Z,98.02
2022-10-22T22:16:10.513Z,96.99
2022-10-22T22:18:39.448Z,97.01
2022-10-22T22:21:09.773Z,96.62
2022-10-22T22:23:39.028Z,96.98
2022-10-22T22:26:07.174Z,97.14
2022-10-22T22:28:35.619Z,96.91
2022-10-22T22:31:14.999Z,96.78
2022-10-22T22:33:42.978Z,97.00
2022-10-22T22:36:10.899Z,96.94
2022-10-22T22:38:38.991Z,97.05
2022-10-22T22:41:07.790Z,96.89
2022-10-22T22:43:36.132Z,98.13
2022-10-22T22:46:06.250Z,97.14
2022-10-22T22:48:34.686Z,96.61
2022-10-22T22:51:04.040Z,96.65
2022-10-22T22:53:31.845Z,96.80
2022-10-22T22:56:21.044Z,96.66
2022-10-22T22:58:48.998Z,96.22
2022-10-22T23:01:18.203Z,96.37
2022-10-22T23:03:53.475Z,96.37
2022-10-22T23:06:21.546Z,96.20
2022-10-22T23:08:50.352Z,96.43
2022-10-22T23:11:18.789Z,96.91
2022-10-22T23:13:46.999Z,97.92
2022-10-22T23:16:18.414Z,97.50
2022-10-22T23:18:47.930Z,96.44
2022-10-22T23:21:23.900Z,96.93
2022-10-22T23:23:54.303Z,98.22
2022-10-22T23:26:25.466Z,98.51
2022-10-22T23:28:53.415Z,97.84
2022-10-22T23:31:21.480Z,97.76
2022-10-22T23:33:49.352Z,97.49
2022-10-22T23:36:17.270Z,97.19
2022-10-22T23:38:44.876Z,96.78
2022-10-22T23:41:12.574Z,96.24
2022-10-22T23:43:40.524Z,95.95
2022-10-22T23:46:10.152Z,95.47
2022-10-22T23:48:38.436Z,95.37
2022-10-22T23:51:14.609Z,94.13
2022-10-22T23:53:43.684Z,94.33
2022-10-22T23:56:15.161Z,95.67
2022-10-22T23:58:42.816Z,95.58
